Time;durP1;ratioP1;P1;durP2;ratioP2;P2;SDS_P1;SDS_P2;PMS_P1;PMS_P2;Temp;Humidity;BMP_temperature;BMP_pressure;BME280_temperature;BME280_humidity;BME280_pressure;Samples;Min_cycle;Max_cycle;Signal;HPM_P1;HPM_P2
2024/04/09 00:00:46;;;;;;;53.80;38.25;;;;;;;23.48;22.99;97886.72;5417460;26;20003;-46
2024/04/09 00:03:12;;;;;;;26.27;17.58;;;;;;;23.63;22.95;97885.53;5417226;26;20022;-46
2024/04/09 00:05:39;;;;;;;23.83;9.73;;;;;;;23.54;23.05;97890.03;5417397;26;20031;-47
2024/04/09 00:08:07;;;;;;;22.42;9.60;;;;;;;23.50;23.48;97887.19;5415749;26;20023;-48
2024/04/09 00:10:36;;;;;;;17.48;13.35;;;;;;;23.66;24.00;97878.75;5417341;26;20004;-48
2024/04/09 00:13:04;;;;;;;9.50;3.40;;;;;;;23.95;23.34;97880.25;5417212;26;20011;-47
2024/04/09 00:15:36;;;;;;;14.98;5.13;;;;;;;24.18;23.31;97889.00;5417184;26;20468;-46
2024/04/09 00:18:12;;;;;;;8.93;2.22;;;;;;;24.24;23.68;97888.53;5417210;26;20466;-46
2024/04/09 00:20:39;;;;;;;10.23;2.28;;;;;;;24.13;23.87;97909.50;5415497;26;20011;-45
2024/04/09 00:23:05;;;;;;;9.57;2.17;;;;;;;23.99;24.04;97897.28;5417071;26;20003;-46
2024/04/09 00:25:31;;;;;;;11.52;2.50;;;;;;;23.86;24.50;97896.25;5416977;26;20072;-46
2024/04/09 00:27:56;;;;;;;11.93;2.10;;;;;;;23.76;24.69;97880.41;5415339;26;20003;-46
2024/04/09 00:30:22;;;;;;;11.43;2.15;;;;;;;23.70;25.12;97872.50;5416999;26;20450;-46
2024/04/09 00:32:51;;;;;;;35.88;3.67;;;;;;;23.56;25.31;97876.34;5417167;26;20030;-46
2024/04/09 00:35:17;;;;;;;11.30;2.30;;;;;;;23.30;26.13;97890.31;5417056;26;20030;-46
2024/04/09 00:37:43;;;;;;;16.38;2.90;;;;;;;23.15;26.33;97896.03;5415284;26;20011;-46
2024/04/09 00:40:10;;;;;;;18.88;2.50;;;;;;;22.89;26.63;97916.09;5416896;26;19999;-47
2024/04/09 00:42:37;;;;;;;15.13;3.10;;;;;;;22.63;27.77;97920.38;5416948;26;20003;-47
2024/04/09 00:45:04;;;;;;;13.15;2.42;;;;;;;22.43;27.83;97910.88;5414938;26;20003;-47
2024/04/09 00:47:34;;;;;;;13.50;2.88;;;;;;;22.43;28.17;97921.56;5416835;26;20008;-47
2024/04/09 00:50:06;;;;;;;9.75;4.78;;;;;;;22.54;28.40;97926.41;5416827;26;20000;-47
2024/04/09 00:52:33;;;;;;;11.23;2.05;;;;;;;22.69;28.05;97938.69;5416841;26;20021;-47
2024/04/09 00:55:02;;;;;;;9.65;2.05;;;;;;;22.75;28.16;97936.72;5414967;26;20036;-47
2024/04/09 00:57:29;;;;;;;11.82;2.22;;;;;;;22.78;28.45;97921.94;5416711;26;20004;-47
2024/04/09 00:59:56;;;;;;;9.40;2.30;;;;;;;22.81;28.24;97911.44;5414838;26;20003;-47
2024/04/09 01:02:25;;;;;;;10.25;2.90;;;;;;;22.74;28.30;97919.09;5416596;26;20415;-47
2024/04/09 01:04:55;;;;;;;12.73;2.88;;;;;;;22.67;28.43;97929.38;5416390;26;20000;-47
2024/04/09 01:07:20;;;;;;;14.40;2.78;;;;;;;22.55;28.72;97913.84;5416560;26;20014;-47
2024/04/09 01:09:46;;;;;;;19.95;2.60;;;;;;;22.47;29.00;97927.91;5414748;26;20003;-47
2024/04/09 01:12:12;;;;;;;8.38;2.53;;;;;;;22.52;29.25;97933.16;5414503;26;20350;-47
2024/04/09 01:14:37;;;;;;;13.02;2.78;;;;;;;22.54;29.22;97945.13;5416421;26;20338;-47
2024/04/09 01:17:03;;;;;;;17.88;2.83;;;;;;;22.48;29.41;97956.25;5414578;26;20003;-47
2024/04/09 01:19:29;;;;;;;17.55;3.15;;;;;;;22.53;29.12;97959.59;5415919;26;20004;-47
2024/04/09 01:21:55;;;;;;;8.75;2.28;;;;;;;22.60;29.35;97963.78;5416139;26;20050;-47
2024/04/09 01:24:21;;;;;;;15.52;2.30;;;;;;;22.65;29.44;97979.72;5414043;26;20012;-47
2024/04/09 01:26:50;;;;;;;11.60;2.63;;;;;;;22.64;29.41;97986.94;5384753;26;20004;-47
2024/04/09 01:29:16;;;;;;;16.02;2.67;;;;;;;22.61;29.39;98010.81;5416109;26;20011;-47
2024/04/09 01:31:41;;;;;;;18.02;3.05;;;;;;;22.66;29.47;98018.75;5416058;26;20351;-47
2024/04/09 01:34:09;;;;;;;8.65;2.17;;;;;;;22.84;29.06;98047.31;5416026;26;20014;-47
2024/04/09 01:36:36;;;;;;;17.13;2.72;;;;;;;22.93;28.90;98066.13;5415928;26;20016;-47
2024/04/09 01:39:02;;;;;;;7.90;1.55;;;;;;;23.00;32.77;98060.38;5415914;26;19999;-44
2024/04/09 01:41:28;;;;;;;10.13;1.55;;;;;;;22.64;37.47;98072.53;5415957;26;20454;-44
2024/04/09 01:43:53;;;;;;;12.95;2.88;;;;;;;22.14;40.88;98101.66;5415747;26;20004;-44
2024/04/09 01:46:19;;;;;;;13.40;1.52;;;;;;;21.73;42.73;98111.06;5415653;26;20000;-44
2024/04/09 01:48:45;;;;;;;9.10;2.00;;;;;;;21.36;44.18;98101.06;5415799;26;20422;-44
2024/04/09 01:51:12;;;;;;;9.95;1.85;;;;;;;21.02;45.58;98120.63;5415689;26;20084;-44
2024/04/09 01:53:42;;;;;;;5.80;1.35;;;;;;;20.91;46.38;98141.28;5413912;26;20442;-44
2024/04/09 01:56:09;;;;;;;5.00;1.30;;;;;;;20.88;46.63;98175.72;5413887;26;20007;-45
2024/04/09 01:58:35;;;;;;;10.48;1.80;;;;;;;20.96;47.12;98193.78;5415586;26;20076;-44
2024/04/09 02:01:05;;;;;;;7.97;1.25;;;;;;;21.20;47.00;98195.72;5415534;26;20011;-45
2024/04/09 02:03:31;;;;;;;6.60;1.45;;;;;;;21.57;46.92;98202.31;5415571;26;20000;-45
2024/04/09 02:05:57;;;;;;;6.88;1.63;;;;;;;21.51;46.52;98205.03;5413725;26;19999;-44
2024/04/09 02:08:22;;;;;;;8.18;4.05;;;;;;;21.32;47.81;98228.94;5415375;26;20014;-44
2024/04/09 02:10:50;;;;;;;5.03;1.50;;;;;;;21.10;53.32;98249.97;5413734;26;20007;-44
2024/04/09 02:13:16;;;;;;;10.10;2.25;;;;;;;20.29;55.57;98268.09;5415551;26;20018;-43
2024/04/09 02:15:44;;;;;;;14.95;2.22;;;;;;;18.52;61.40;98304.09;5415271;26;20073;-45
2024/04/09 02:18:10;;;;;;;8.65;1.80;;;;;;;17.16;67.25;98350.50;5415294;26;20015;-45
2024/04/09 02:20:38;;;;;;;9.80;1.60;;;;;;;16.06;73.30;98376.22;5415193;26;20004;-44
2024/04/09 02:23:04;;;;;;;13.82;1.23;;;;;;;15.45;79.14;98339.03;5415147;26;20010;-44
2024/04/09 02:25:30;;;;;;;5.47;1.48;;;;;;;14.78;83.83;98351.09;5414951;26;20012;-45
2024/04/09 02:27:56;;;;;;;11.15;1.83;;;;;;;14.56;89.87;98370.22;5415120;26;20338;-45
2024/04/09 02:30:21;;;;;;;5.45;0.63;;;;;;;14.21;91.81;98380.03;5415086;26;20044;-44
2024/04/09 02:32:47;;;;;;;2.00;0.50;;;;;;;13.84;94.06;98393.44;5418556;26;20034;-46
2024/04/09 02:35:13;;;;;;;3.22;0.85;;;;;;;13.59;96.28;98394.44;5417016;26;20028;-46
2024/04/09 02:37:41;;;;;;;10.18;1.13;;;;;;;13.35;97.65;98394.38;5417095;26;20000;-46
2024/04/09 02:40:15;;;;;;;5.20;0.40;;;;;;;13.08;97.82;98393.13;5418683;26;20014;-46
2024/04/09 02:42:42;;;;;;;5.60;1.20;;;;;;;12.82;99.54;98428.50;5418703;26;20011;-46
2024/04/09 02:45:09;;;;;;;7.57;0.50;;;;;;;12.92;100.00;98450.69;5418467;26;20027;-45
2024/04/09 02:47:35;;;;;;;5.78;0.52;;;;;;;12.90;100.00;98505.41;5418477;26;20038;-45
2024/04/09 02:50:02;;;;;;;1.90;0.75;;;;;;;12.96;100.00;98532.72;5418499;26;20049;-45
2024/04/09 02:52:29;;;;;;;3.55;0.60;;;;;;;13.12;100.00;98544.47;5418629;26;20072;-45
2024/04/09 02:54:54;;;;;;;4.82;0.60;;;;;;;13.19;100.00;98575.00;5418470;26;19999;-47
2024/04/09 02:57:20;;;;;;;1.60;0.75;;;;;;;13.10;100.00;98592.13;5418324;26;20331;-47
2024/04/09 02:59:46;;;;;;;2.55;0.88;;;;;;;12.96;100.00;98586.19;5418244;26;20050;-48
2024/04/09 03:02:11;;;;;;;2.40;0.60;;;;;;;12.87;100.00;98584.03;5416543;26;20014;-48
2024/04/09 03:04:37;;;;;;;3.17;0.40;;;;;;;12.74;100.00;98541.03;5418197;26;20009;-48
2024/04/09 03:07:06;;;;;;;5.80;1.10;;;;;;;12.43;100.00;98543.72;5416422;26;20004;-48
2024/04/09 03:09:34;;;;;;;3.05;0.82;;;;;;;12.45;100.00;98524.06;5416467;26;20007;-48
2024/04/09 03:12:01;;;;;;;6.53;1.25;;;;;;;12.50;100.00;98518.16;5416411;26;19999;-48
2024/04/09 03:14:28;;;;;;;8.73;1.35;;;;;;;12.51;100.00;98528.47;5418100;26;20011;-48
2024/04/09 03:16:54;;;;;;;3.92;0.82;;;;;;;12.55;100.00;98549.91;5416236;26;19999;-47
2024/04/09 03:19:20;;;;;;;4.80;0.65;;;;;;;12.66;100.00;98543.13;5416343;26;20073;-47
2024/04/09 03:21:45;;;;;;;4.70;1.50;;;;;;;12.68;100.00;98530.56;5418020;26;20003;-47
2024/04/09 03:24:11;;;;;;;4.22;0.85;;;;;;;12.57;100.00;98535.50;5417630;26;20460;-47
2024/04/09 03:26:37;;;;;;;4.47;1.63;;;;;;;12.55;100.00;98534.09;5416453;26;20419;-44
2024/04/09 03:29:03;;;;;;;6.63;1.20;;;;;;;12.55;100.00;98563.06;5417881;26;20003;-45
2024/04/09 03:31:29;;;;;;;3.08;1.42;;;;;;;12.57;100.00;98590.78;5416086;26;20003;-45
2024/04/09 03:33:55;;;;;;;1.95;0.60;;;;;;;12.57;100.00;98614.47;5417839;26;20003;-45
2024/04/09 03:36:21;;;;;;;3.17;0.75;;;;;;;12.58;100.00;98628.47;5415984;26;20014;-47
2024/04/09 03:38:47;;;;;;;2.72;0.80;;;;;;;12.50;100.00;98634.00;5417713;26;20000;-47
2024/04/09 03:41:13;;;;;;;26.00;22.88;;;;;;;12.65;100.00;98636.31;5386483;26;20000;-47
2024/04/09 03:43:39;;;;;;;6.47;1.95;;;;;;;12.97;100.00;98629.13;5415478;26;20338;-48
2024/04/09 03:46:11;;;;;;;3.05;1.10;;;;;;;12.95;100.00;98616.16;5417591;26;20013;-48
2024/04/09 03:48:42;;;;;;;2.25;0.60;;;;;;;12.72;100.00;98614.16;5416121;26;20348;-48
2024/04/09 03:51:08;;;;;;;10.23;1.00;;;;;;;12.64;100.00;98603.91;5417835;26;20010;-48
2024/04/09 03:53:34;;;;;;;5.45;1.17;;;;;;;12.53;100.00;98608.03;5415837;26;20008;-48
2024/04/09 03:56:05;;;;;;;8.00;1.45;;;;;;;12.46;100.00;98624.91;5415760;26;20446;-48
2024/04/09 03:58:32;;;;;;;6.18;1.60;;;;;;;12.45;100.00;98631.19;5417559;26;20473;-48
2024/04/09 04:01:03;;;;;;;3.20;0.68;;;;;;;12.45;100.00;98652.22;5415713;26;20003;-46
2024/04/09 04:03:29;;;;;;;8.73;1.85;;;;;;;12.41;100.00;98666.84;5415887;26;20020;-46
2024/04/09 04:06:00;;;;;;;12.70;1.48;;;;;;;12.31;100.00;98654.16;5415699;26;20441;-45
2024/04/09 04:08:33;;;;;;;17.30;10.48;;;;;;;12.27;100.00;98676.63;5417605;26;20004;-46
2024/04/09 04:11:01;;;;;;;16.13;5.95;;;;;;;12.18;100.00;98697.94;5417278;26;20007;-46
2024/04/09 04:13:29;;;;;;;10.88;1.45;;;;;;;12.12;100.00;98701.41;5417291;26;20071;-48
2024/04/09 04:16:12;;;;;;;10.70;4.25;;;;;;;11.98;100.00;98711.19;5415504;26;20098;-48
2024/04/09 04:18:43;;;;;;;24.38;3.72;;;;;;;11.98;100.00;98713.81;5417354;26;20018;-47
2024/04/09 04:21:13;;;;;;;10.73;4.05;;;;;;;11.95;100.00;98719.50;5417027;26;20011;-47
2024/04/09 04:23:40;;;;;;;12.00;2.17;;;;;;;11.90;100.00;98713.25;5415346;26;20003;-47
2024/04/09 04:26:10;;;;;;;4.15;1.10;;;;;;;11.79;100.00;98694.44;5417179;26;20080;-48
2024/04/09 04:28:37;;;;;;;8.65;1.27;;;;;;;11.76;100.00;98684.31;5415816;26;20003;-47
2024/04/09 04:31:14;;;;;;;3.47;1.73;;;;;;;11.78;100.00;98716.47;5417389;26;20011;-45
2024/04/09 04:33:41;;;;;;;1.70;0.90;;;;;;;11.75;100.00;98734.47;5417342;26;20010;-45
2024/04/09 04:36:08;;;;;;;5.97;2.72;;;;;;;11.74;100.00;98735.50;5417369;26;20003;-45
2024/04/09 04:38:35;;;;;;;9.98;3.17;;;;;;;11.78;100.00;98758.53;5415562;26;20076;-45
2024/04/09 04:41:02;;;;;;;8.20;1.20;;;;;;;11.75;100.00;98784.44;5417231;26;19999;-45
2024/04/09 04:43:28;;;;;;;4.90;2.08;;;;;;;11.73;100.00;98805.69;5416768;26;19999;-44
2024/04/09 04:45:55;;;;;;;2.97;1.05;;;;;;;11.54;100.00;98815.19;5416723;26;20043;-44
2024/04/09 04:48:21;;;;;;;7.43;2.95;;;;;;;11.46;100.00;98804.09;5385550;26;20367;-47
2024/04/09 04:50:47;;;;;;;9.55;1.50;;;;;;;11.56;100.00;98805.28;5414983;26;20465;-46
2024/04/09 04:53:13;;;;;;;8.88;1.40;;;;;;;11.56;100.00;98810.53;5414622;26;20010;-45
2024/04/09 04:55:39;;;;;;;3.22;1.23;;;;;;;11.48;100.00;98825.72;5414245;26;20101;-45
2024/04/09 04:58:05;;;;;;;9.68;2.03;;;;;;;11.52;100.00;98821.69;5416593;26;20007;-45
2024/04/09 05:00:32;;;;;;;6.85;0.90;;;;;;;11.60;100.00;98795.19;5416581;26;20450;-45
2024/04/09 05:02:57;;;;;;;6.85;1.33;;;;;;;11.54;100.00;98793.38;5416469;26;20073;-45
2024/04/09 05:05:24;;;;;;;10.32;4.90;;;;;;;11.43;100.00;98796.59;5416522;26;20011;-45
2024/04/09 05:07:52;;;;;;;4.03;2.22;;;;;;;11.23;100.00;98826.34;5416497;26;20018;-45
2024/04/09 05:10:19;;;;;;;9.18;1.10;;;;;;;11.18;100.00;98839.25;5416464;26;20004;-45
2024/04/09 05:12:49;;;;;;;11.05;1.33;;;;;;;11.12;100.00;98825.09;5416501;26;20453;-45
2024/04/09 05:15:16;;;;;;;4.10;1.02;;;;;;;11.02;100.00;98824.66;5385256;26;20011;-45
2024/04/09 05:17:43;;;;;;;4.78;1.58;;;;;;;10.83;100.00;98823.63;5414494;26;20014;-45
2024/04/09 05:20:14;;;;;;;5.45;0.80;;;;;;;10.61;100.00;98836.09;5414534;26;20031;-45
2024/04/09 05:22:44;;;;;;;11.40;2.97;;;;;;;10.57;100.00;98827.78;5414558;26;20010;-44
2024/04/09 05:25:11;;;;;;;5.20;0.90;;;;;;;10.67;100.00;98810.88;5421377;26;20000;-45
2024/04/09 05:27:38;;;;;;;41.88;36.15;;;;;;;10.55;100.00;98823.75;5385123;26;20043;-45
2024/04/09 05:30:05;;;;;;;23.73;20.55;;;;;;;10.52;100.00;98837.25;5414598;26;20036;-45
2024/04/09 05:32:32;;;;;;;103.88;81.80;;;;;;;10.35;100.00;98869.06;5416069;26;20011;-45
2024/04/09 05:34:57;;;;;;;19.48;14.98;;;;;;;10.48;100.00;98881.44;5416005;26;19999;-45
2024/04/09 05:37:24;;;;;;;11.07;3.35;;;;;;;10.61;100.00;98885.94;5414126;26;20010;-46
2024/04/09 05:39:50;;;;;;;7.40;2.10;;;;;;;10.57;100.00;98929.34;5415914;26;20010;-44
2024/04/09 05:42:16;;;;;;;5.90;3.47;;;;;;;10.52;100.00;98968.47;5414239;26;20004;-44
2024/04/09 05:44:42;;;;;;;8.10;2.60;;;;;;;10.46;100.00;98972.66;5414013;26;20037;-44
2024/04/09 05:47:08;;;;;;;4.88;2.55;;;;;;;10.49;100.00;98950.50;5415959;26;19999;-44
2024/04/09 05:49:34;;;;;;;9.77;6.38;;;;;;;10.58;100.00;98954.56;5415871;26;20007;-44
2024/04/09 05:52:00;;;;;;;8.18;1.40;;;;;;;10.48;100.00;98980.34;5415849;26;20014;-44
2024/04/09 05:54:26;;;;;;;5.40;1.25;;;;;;;10.33;100.00;99007.50;5415707;26;20008;-45
2024/04/09 05:56:52;;;;;;;7.47;3.15;;;;;;;10.28;100.00;99009.88;5415684;26;19999;-44
2024/04/09 05:59:18;;;;;;;3.95;1.38;;;;;;;10.20;100.00;98997.69;5413973;26;20007;-44
2024/04/09 06:01:45;;;;;;;6.70;3.45;;;;;;;10.06;100.00;98995.97;5415686;26;20544;-44
2024/04/09 06:04:11;;;;;;;8.00;6.00;;;;;;;10.17;100.00;98990.19;5415532;26;20046;-45
2024/04/09 06:06:36;;;;;;;10.25;2.30;;;;;;;10.17;100.00;98969.22;5418440;26;20000;-45
2024/04/09 06:09:06;;;;;;;5.03;1.88;;;;;;;10.17;100.00;98948.22;5419247;26;20003;-45
2024/04/09 06:11:32;;;;;;;9.60;2.67;;;;;;;10.30;100.00;98949.34;5417305;26;20004;-45
2024/04/09 06:13:58;;;;;;;8.05;1.77;;;;;;;10.34;100.00;98951.41;5418912;26;20457;-45
2024/04/09 06:16:23;;;;;;;15.88;1.40;;;;;;;10.25;100.00;98935.97;5419025;26;20371;-45
2024/04/09 06:18:49;;;;;;;12.48;2.15;;;;;;;10.18;100.00;98933.28;5418852;26;20072;-45
2024/04/09 06:21:15;;;;;;;13.02;1.85;;;;;;;10.36;100.00;98924.97;5417146;26;20015;-46
2024/04/09 06:23:41;;;;;;;9.88;2.05;;;;;;;10.53;100.00;98925.47;5418772;26;20449;-45
2024/04/09 06:26:06;;;;;;;7.38;1.05;;;;;;;10.55;100.00;98926.91;5416804;26;20007;-46
2024/04/09 06:28:32;;;;;;;10.55;3.92;;;;;;;10.61;100.00;98937.63;5417272;26;20014;-46
2024/04/09 06:30:58;;;;;;;8.95;4.82;;;;;;;10.70;100.00;98952.22;5418676;26;20098;-45
2024/04/09 06:33:25;;;;;;;7.57;2.08;;;;;;;10.66;100.00;98964.91;5387354;26;20031;-45
2024/04/09 06:35:51;;;;;;;7.97;1.90;;;;;;;10.55;100.00;98973.34;5418514;26;20015;-45
2024/04/09 06:38:17;;;;;;;8.73;2.10;;;;;;;10.38;100.00;98968.41;5416854;26;20426;-46
2024/04/09 06:40:43;;;;;;;6.70;1.80;;;;;;;10.53;100.00;98981.41;5387253;26;20077;-45
2024/04/09 06:43:10;;;;;;;8.30;1.95;;;;;;;10.63;100.00;98978.44;5387187;26;20016;-45
2024/04/09 06:45:36;;;;;;;16.35;2.78;;;;;;;10.68;100.00;98990.97;5418513;26;20031;-46
2024/04/09 06:48:02;;;;;;;28.80;22.17;;;;;;;10.47;100.00;99028.59;5418823;26;20000;-45
2024/04/09 06:50:28;;;;;;;46.10;32.88;;;;;;;10.33;100.00;99046.03;5418778;26;20003;-45
2024/04/09 06:52:54;;;;;;;138.00;121.25;;;;;;;10.07;100.00;99047.41;5418720;26;20014;-45
2024/04/09 06:55:19;;;;;;;108.78;97.97;;;;;;;9.95;100.00;99033.97;5418792;26;20388;-45
2024/04/09 06:57:46;;;;;;;147.35;131.32;;;;;;;10.00;100.00;99029.00;5418742;26;20012;-45
2024/04/09 07:00:14;;;;;;;69.65;62.25;;;;;;;10.02;100.00;99030.59;5418543;26;20337;-45
2024/04/09 07:02:40;;;;;;;165.40;148.38;;;;;;;9.92;100.00;99033.53;5418556;26;20541;-45
2024/04/09 07:05:07;;;;;;;211.77;189.82;;;;;;;9.80;100.00;99028.81;5418710;26;20358;-45
2024/04/09 07:07:34;;;;;;;29.58;25.48;;;;;;;9.64;100.00;99021.19;5418506;26;19999;-44
2024/04/09 07:10:00;;;;;;;16.75;12.13;;;;;;;9.57;100.00;99031.56;5418513;26;20036;-45
2024/04/09 07:12:27;;;;;;;9.30;5.50;;;;;;;9.48;100.00;99042.38;5418528;26;20433;-44
2024/04/09 07:14:53;;;;;;;14.90;9.65;;;;;;;9.28;100.00;99037.69;5418460;26;20003;-44
2024/04/09 07:17:19;;;;;;;7.55;5.05;;;;;;;9.28;100.00;99031.66;5386440;26;20012;-44
2024/04/09 07:19:45;;;;;;;4.70;3.53;;;;;;;9.14;100.00;99031.50;5416652;26;20453;-44
2024/04/09 07:22:11;;;;;;;7.75;2.38;;;;;;;9.24;100.00;99025.16;5416667;26;20015;-44
2024/04/09 07:24:37;;;;;;;3.95;1.08;;;;;;;9.21;100.00;99031.56;5416217;26;20063;-44
2024/04/09 07:27:03;;;;;;;2.83;1.05;;;;;;;8.98;100.00;99032.50;5418266;26;20028;-44
2024/04/09 07:29:31;;;;;;;5.22;2.72;;;;;;;8.88;100.00;99041.63;5418221;26;20430;-44
2024/04/09 07:31:57;;;;;;;3.65;1.23;;;;;;;8.87;100.00;99034.75;5418039;26;20016;-44
2024/04/09 07:34:25;;;;;;;11.07;2.22;;;;;;;8.90;100.00;99019.50;5418017;26;20003;-44
2024/04/09 07:36:51;;;;;;;4.45;0.80;;;;;;;8.76;100.00;99021.13;5416031;26;20039;-45
2024/04/09 07:39:18;;;;;;;8.88;1.13;;;;;;;8.65;100.00;99020.75;5417885;26;20031;-44
2024/04/09 07:41:44;;;;;;;4.90;2.15;;;;;;;8.55;100.00;99037.53;5418049;26;20003;-44
2024/04/09 07:44:10;;;;;;;9.15;3.75;;;;;;;8.98;100.00;99039.53;5416018;26;20003;-45
2024/04/09 07:46:36;;;;;;;8.55;3.70;;;;;;;9.29;100.00;99052.41;5415891;26;19999;-45
2024/04/09 07:49:04;;;;;;;4.72;1.98;;;;;;;9.39;100.00;99065.22;5417629;26;20000;-45
2024/04/09 07:51:31;;;;;;;6.85;2.80;;;;;;;9.52;100.00;99068.00;5417519;26;20014;-45
2024/04/09 07:53:57;;;;;;;6.35;1.92;;;;;;;9.73;100.00;99075.09;5417641;26;20007;-45
2024/04/09 07:56:24;;;;;;;8.02;2.22;;;;;;;9.70;100.00;99085.97;5417602;26;20014;-45
2024/04/09 07:58:50;;;;;;;4.60;1.30;;;;;;;9.70;100.00;99091.19;5415837;26;20082;-46
2024/04/09 08:01:16;;;;;;;5.78;2.75;;;;;;;9.80;100.00;99091.72;5415815;26;20075;-46
2024/04/09 08:03:43;;;;;;;10.32;2.13;;;;;;;9.65;100.00;99090.13;5415562;26;20031;-45
2024/04/09 08:06:10;;;;;;;30.05;6.45;;;;;;;9.65;100.00;99100.59;5415741;26;19999;-45
2024/04/09 08:08:36;;;;;;;33.10;6.40;;;;;;;9.64;100.00;99109.44;5417336;26;19999;-46
2024/04/09 08:11:10;;;;;;;14.38;2.20;;;;;;;9.72;100.00;99117.22;5417296;26;20441;-45
2024/04/09 08:13:37;;;;;;;12.85;5.03;;;;;;;9.69;100.00;99122.81;5415619;26;20015;-46
2024/04/09 08:16:03;;;;;;;14.23;2.00;;;;;;;9.72;100.00;99131.13;5415568;26;20031;-46
2024/04/09 08:18:29;;;;;;;15.50;3.40;;;;;;;9.72;100.00;99133.75;5417251;26;20022;-45
2024/04/09 08:20:55;;;;;;;8.90;1.88;;;;;;;9.70;100.00;99141.00;5417258;26;20404;-45
2024/04/09 08:23:21;;;;;;;3.78;1.85;;;;;;;9.64;100.00;99136.47;5415407;26;20044;-45
2024/04/09 08:25:49;;;;;;;3.40;1.10;;;;;;;9.62;100.00;99137.66;5415015;26;20004;-45
2024/04/09 08:28:18;;;;;;;11.85;6.40;;;;;;;9.65;100.00;99140.72;5416228;26;19999;-44
2024/04/09 08:30:45;;;;;;;5.40;2.95;;;;;;;9.76;100.00;99148.13;5416567;26;20003;-45
2024/04/09 08:33:12;;;;;;;8.52;2.53;;;;;;;9.95;100.00;99156.41;5417099;26;20353;-45
2024/04/09 08:35:42;;;;;;;4.18;2.28;;;;;;;9.99;100.00;99160.28;5416840;26;20014;-45
2024/04/09 08:38:08;;;;;;;6.30;1.58;;;;;;;9.88;100.00;99164.19;5415329;26;20000;-45
2024/04/09 08:40:34;;;;;;;3.42;1.30;;;;;;;9.85;100.00;99166.38;5415104;26;20003;-45
2024/04/09 08:43:00;;;;;;;3.70;0.98;;;;;;;9.85;100.00;99169.00;5416963;26;19999;-45
2024/04/09 08:45:27;;;;;;;5.75;1.80;;;;;;;9.78;100.00;99164.47;5415007;26;20453;-45
2024/04/09 08:47:56;;;;;;;3.58;1.30;;;;;;;9.83;100.00;99168.34;5415042;26;20018;-45
2024/04/09 08:50:24;;;;;;;3.97;1.75;;;;;;;9.73;100.00;99169.44;5415034;26;20003;-45
2024/04/09 08:52:50;;;;;;;4.15;1.00;;;;;;;9.73;100.00;99172.06;5416663;26;20015;-45
2024/04/09 08:55:18;;;;;;;2.20;1.00;;;;;;;9.82;100.00;99164.94;5415064;26;20003;-45
2024/04/09 08:57:44;;;;;;;20.52;5.53;;;;;;;9.96;100.00;99171.13;5416766;26;20007;-45
2024/04/09 09:00:10;;;;;;;14.93;9.93;;;;;;;10.26;100.00;99174.50;5414878;26;20010;-44
2024/04/09 09:02:36;;;;;;;7.03;4.30;;;;;;;10.28;100.00;99169.03;5416551;26;19999;-45
2024/04/09 09:05:01;;;;;;;11.07;7.85;;;;;;;10.43;100.00;99175.09;5416475;26;20000;-46
2024/04/09 09:07:28;;;;;;;6.18;2.08;;;;;;;10.55;100.00;99172.78;5416376;26;20014;-45
2024/04/09 09:10:06;;;;;;;3.85;2.83;;;;;;;10.30;100.00;99180.19;5414914;26;20008;-45
2024/04/09 09:12:31;;;;;;;16.92;13.27;;;;;;;10.50;100.00;99175.97;5414848;26;20000;-45
2024/04/09 09:15:00;;;;;;;5.40;3.47;;;;;;;10.90;100.00;99178.94;5385115;26;20014;-46
2024/04/09 09:17:29;;;;;;;6.10;1.55;;;;;;;10.42;100.00;99186.56;5414675;26;20003;-45
2024/04/09 09:20:09;;;;;;;3.08;1.40;;;;;;;10.06;100.00;99197.06;5414592;26;20003;-45
2024/04/09 09:22:43;;;;;;;4.38;2.80;;;;;;;9.92;100.00;99199.53;5386536;26;20014;-45
2024/04/09 09:25:15;;;;;;;4.10;2.25;;;;;;;9.95;100.00;99208.84;5416107;26;20040;-45
2024/04/09 09:27:43;;;;;;;6.70;0.88;;;;;;;10.05;100.00;99206.75;5416257;26;20027;-45
2024/04/09 09:30:09;;;;;;;6.18;1.55;;;;;;;10.33;100.00;99212.13;5416096;26;20338;-45
2024/04/09 09:32:44;;;;;;;2.55;2.22;;;;;;;10.56;100.00;99214.59;5414319;26;20004;-45
2024/04/09 09:35:20;;;;;;;3.50;1.10;;;;;;;10.61;100.00;99206.16;5414463;26;20000;-45
2024/04/09 09:37:49;;;;;;;;;;;;;;;10.84;100.00;99208.56;5416682;26;20003;-45
2024/04/09 09:40:19;;;;;;;31.90;25.45;;;;;;;11.47;100.00;99210.44;5417032;26;19925;-45
2024/04/09 09:42:46;;;;;;;34.28;22.83;;;;;;;11.83;100.00;99210.25;5417732;26;20012;-45
2024/04/09 09:45:13;;;;;;;40.35;36.10;;;;;;;12.11;100.00;99212.00;5358943;26;20007;-45
2024/04/09 09:47:39;;;;;;;12.60;5.43;;;;;;;12.24;100.00;99209.41;5417533;26;19999;-45
2024/04/09 09:50:08;;;;;;;16.00;12.30;;;;;;;12.56;100.00;99199.16;5419278;26;20453;-45
2024/04/09 09:52:35;;;;;;;7.43;4.20;;;;;;;12.81;100.00;99204.66;5419266;26;20413;-45
2024/04/09 09:55:04;;;;;;;12.77;3.15;;;;;;;12.98;100.00;99195.34;5419340;26;20015;-45
2024/04/09 09:57:34;;;;;;;3.85;1.35;;;;;;;13.19;100.00;99190.84;5419256;26;20349;-45
2024/04/09 10:00:11;;;;;;;4.03;1.48;;;;;;;13.04;100.00;99198.16;5419447;26;20076;-46
2024/04/09 10:02:45;;;;;;;4.53;1.38;;;;;;;12.95;100.00;99193.09;5419271;26;20519;-45
2024/04/09 10:05:13;;;;;;;6.75;1.80;;;;;;;13.03;100.00;99191.28;5419160;26;19999;-45
2024/04/09 10:07:39;;;;;;;9.32;3.17;;;;;;;13.15;100.00;99187.81;5419064;26;20015;-45
2024/04/09 10:10:05;;;;;;;7.32;4.30;;;;;;;13.27;100.00;99184.56;5387768;26;19999;-45
2024/04/09 10:12:35;;;;;;;14.90;4.55;;;;;;;13.31;100.00;99176.06;5417184;26;20036;-46
2024/04/09 10:15:03;;;;;;;37.97;34.15;;;;;;;13.70;100.00;99171.72;5418883;26;20026;-46
2024/04/09 10:18:04;;;;;;;44.42;39.75;;;;;;;13.88;100.00;99165.75;5418887;26;20068;-46
2024/04/09 10:20:31;;;;;;;81.25;73.65;;;;;;;14.24;100.00;99159.06;5417201;26;20327;-46
2024/04/09 10:23:01;;;;;;;78.32;70.22;;;;;;;14.80;100.00;99157.50;5417160;26;20073;-46
2024/04/09 10:25:37;;;;;;;155.52;140.30;;;;;;;15.03;100.00;99156.91;5418427;26;20007;-46
2024/04/09 10:28:04;;;;;;;;;;;;;;;15.18;100.00;99160.00;5419287;26;20011;-47
2024/04/09 10:30:33;;;;;;;6.75;6.13;;;;;;;14.58;100.00;99164.97;5418708;26;19956;-47
2024/04/09 10:33:04;;;;;;;13.50;10.75;;;;;;;14.41;100.00;99182.31;5418841;26;20321;-46
2024/04/09 10:35:30;;;;;;;6.25;4.82;;;;;;;14.37;100.00;99187.22;5418715;26;20004;-46
2024/04/09 10:37:58;;;;;;;2.38;1.30;;;;;;;14.36;100.00;99207.53;5416938;26;20004;-47
2024/04/09 10:40:25;;;;;;;3.10;0.90;;;;;;;14.10;100.00;99192.63;5418604;26;20015;-46
2024/04/09 10:42:52;;;;;;;5.07;2.30;;;;;;;13.93;100.00;99194.97;5387359;26;20000;-46
2024/04/09 10:45:19;;;;;;;3.90;1.75;;;;;;;13.78;100.00;99184.69;5418438;26;20035;-46
2024/04/09 10:47:45;;;;;;;4.28;1.65;;;;;;;13.47;100.00;99189.84;5418486;26;20003;-46
2024/04/09 10:50:14;;;;;;;4.25;1.50;;;;;;;13.67;100.00;99198.50;5418458;26;20076;-45
2024/04/09 10:52:41;;;;;;;4.32;1.67;;;;;;;13.58;100.00;99200.56;5417398;26;20004;-46
2024/04/09 10:55:10;;;;;;;6.38;2.75;;;;;;;13.22;100.00;99200.19;5416656;26;20318;-45
2024/04/09 10:57:36;;;;;;;6.15;2.75;;;;;;;12.84;100.00;99206.91;5418182;26;20014;-46
2024/04/09 11:00:09;;;;;;;6.93;2.00;;;;;;;12.69;100.00;99209.69;5416641;26;20000;-46
2024/04/09 11:02:39;;;;;;;8.73;2.00;;;;;;;12.75;100.00;99198.34;5418321;26;20014;-46
2024/04/09 11:05:06;;;;;;;6.38;3.95;;;;;;;12.96;100.00;99204.47;5418258;26;20350;-46
2024/04/09 11:07:34;;;;;;;4.47;2.28;;;;;;;12.85;100.00;99207.69;5416418;26;20018;-46
2024/04/09 11:10:00;;;;;;;10.18;3.72;;;;;;;13.02;100.00;99206.28;5418265;26;20018;-46
2024/04/09 11:12:28;;;;;;;9.23;2.20;;;;;;;13.32;100.00;99197.97;5418169;26;20026;-45
2024/04/09 11:14:56;;;;;;;6.00;1.85;;;;;;;13.48;100.00;99207.25;5418161;26;20014;-46
2024/04/09 11:17:22;;;;;;;6.28;1.77;;;;;;;13.89;100.00;99203.50;5418020;26;20014;-46
2024/04/09 11:19:48;;;;;;;5.43;1.58;;;;;;;14.11;100.00;99196.91;5386991;26;20003;-46
2024/04/09 11:22:14;;;;;;;5.38;1.20;;;;;;;14.34;100.00;99198.22;5416317;26;20368;-45
2024/04/09 11:24:41;;;;;;;3.90;1.80;;;;;;;14.50;100.00;99199.53;5417591;26;20014;-46